Terminal Aerodrome Forecast
Issued by NWS

Home | Current Version | Previous Version | Text Only | Print | Product List | Glossary On
Versions: 1 2 3 4 5 6 7 8 9 10 11 12 13 14 15 16 17 18 19 20 21 22
000
FTUS43 KBIS 211300 AAA
TAFMOT
TAF AMD
KMOT 211328Z 2113/2212 31005KT P6SM SCT007
      TEMPO 2113/2114 3SM BR BKN005
     FM211400 32005KT 2SM BR OVC005
      TEMPO 2115/2116 4SM BR BKN005
     FM211600 31007KT 5SM BR SCT005 OVC025
     FM211800 35008KT P6SM BKN050
     FM220700 04008KT P6SM VCTS BKN050CB=

USA.gov is the U.S. government's official web portal to all federal, state and local government web resources and services.